Latest Weather Observations for Cape Bruny AWS

IDT60901

Issued at 7:41 am EDT Thursday 22 February 2018 (issued every 10 minutes, with the page automatically refreshed every 10 minutes)

About weather observations | Map of Hobart area stations | Latest observations for Hobart area | Other Formats
Station Details ID: 094198 Name: CAPE BRUNY (CAPE BRUNY) Lat: -43.49 Lon: 147.14 Height: 59.7 m
Data from the previous 72 hours. | See also: Recent months at Cape Bruny AWS
Date/Time
EDT
Temp
°C
App
Temp
°C
Dew
Point
°C
Rel
Hum
%
Delta-T
°C
Wind Press
QNH
hPa
Press
MSL
hPa
Rain since
9am
mm
Dir  Spd
km/h
Gust
km/h
Spd
kts
Gust
kts
22/07:30am 12.6 11.7 11.2 91 0.7 NNW 7 13 4 7 1018.1 1018.1 0.0
22/07:00am 12.2 11.3 10.8 91 0.7 N 6 11 3 6 1017.9 1017.9 0.0
22/06:30am 12.4 10.6 10.8 90 0.8 NNE 11 17 6 9 1017.7 1017.7 0.0
22/06:00am 12.3 10.8 10.7 90 0.8 NNE 9 13 5 7 1017.4 1017.4 0.0
22/05:30am 12.7 11.4 11.1 90 0.8 NE 9 15 5 8 1017.4 1017.4 0.0
22/05:00am 12.3 11.4 10.5 89 0.9 NNE 6 7 3 4 1017.2 1017.2 0.0
22/04:30am 12.8 11.8 11.0 89 0.9 NNE 7 9 4 5 1017.2 1017.2 0.0
22/04:00am 12.5 11.5 10.9 90 0.8 N 7 9 4 5 1017.4 1017.4 0.0
22/03:30am 11.9 10.6 10.0 88 1.0 N 7 9 4 5 1017.4 1017.4 0.0
22/03:00am 12.1 10.8 10.0 87 1.1 N 7 9 4 5 1017.7 1017.7 0.0
22/02:30am 12.4 11.1 10.0 85 1.2 S 7 7 4 4 1017.8 1017.8 0.0
22/02:00am 13.3 13.5 10.5 83 1.5 CALM 0 0 0 0 1017.9 1017.9 0.0
22/01:30am 14.0 13.6 11.0 82 1.6 S 4 6 2 3 1018.1 1018.1 0.0
22/01:00am 14.3 14.0 11.5 83 1.5 SSW 4 7 2 4 1018.4 1018.4 0.0
22/12:30am 14.4 13.8 11.6 83 1.5 SSW 6 7 3 4 1018.4 1018.4 0.0
22/12:00am 14.7 13.6 11.8 83 1.6 SW 9 11 5 6 1018.6 1018.6 0.0
 
Date/Time
EDT
Temp
°C
App
Temp
°C
Dew
Point
°C
Rel
Hum
%
Delta-T
°C
Wind Press
QNH
hPa
Press
MSL
hPa
Rain since
9am
mm
Dir  Spd
km/h
Gust
km/h
Spd
kts
Gust
kts
21/11:30pm 14.7 13.6 11.8 83 1.6 SW 9 13 5 7 1018.8 1018.8 0.0
21/11:00pm 14.8 14.3 11.9 83 1.6 SSW 6 9 3 5 1018.9 1018.9 0.0
21/10:30pm 14.7 13.9 11.8 83 1.6 SSW 7 13 4 7 1018.9 1018.9 0.0
21/10:00pm 14.4 13.2 11.7 84 1.4 SW 9 11 5 6 1018.8 1018.8 0.0
21/09:30pm 13.7 12.7 11.0 84 1.4 SW 7 11 4 6 1018.5 1018.5 0.0
21/09:00pm 14.2 12.9 11.4 83 1.5 SSW 9 11 5 6 1018.2 1018.2 0.0
21/08:30pm 14.3 13.0 11.3 82 1.6 SSW 9 11 5 6 1017.8 1017.8 0.0
21/08:00pm 15.1 13.9 11.5 79 1.9 S 9 13 5 7 1017.7 1017.7 0.0
21/07:30pm 16.1 14.5 11.7 75 2.4 S 11 13 6 7 1017.5 1017.5 0.0
21/07:00pm 16.6 14.6 11.5 72 2.8 S 13 17 7 9 1017.4 1017.4 0.0
21/06:30pm 16.6 14.5 11.3 71 2.9 S 13 17 7 9 1017.2 1017.2 0.0
21/06:00pm 17.2 14.3 11.0 67 3.3 S 17 20 9 11 1017.2 1017.2 0.0
21/05:30pm 16.9 13.9 10.7 67 3.3 SSE 17 24 9 13 1017.1 1017.1 0.0
21/05:00pm 18.2 15.7 11.0 63 3.9 SSE 15 22 8 12 1016.9 1016.9 0.0
21/04:30pm 17.4 14.9 11.2 67 3.4 ESE 15 19 8 10 1016.8 1016.8 0.0
21/04:00pm 19.2 17.3 11.7 62 4.1 SSE 13 19 7 10 1017.3 1017.3 0.0
21/03:30pm 18.5 16.5 11.6 64 3.8 ESE 13 17 7 9 1017.5 1017.5 0.0
21/03:00pm 17.6 15.0 11.9 69 3.1 ESE 17 20 9 11 1017.5 1017.5 0.0
21/02:30pm 17.2 14.9 11.9 71 2.9 SSE 15 20 8 11 1018.1 1018.1 0.0
21/02:00pm 17.6 15.0 11.9 69 3.1 SSE 17 22 9 12 1018.5 1018.5 0.0
21/01:30pm 18.0 14.8 12.0 68 3.3 S 20 28 11 15 1018.8 1018.8 0.0
21/01:00pm 17.9 15.0 11.0 64 3.7 SSW 17 24 9 13 1018.6 1018.6 0.0
21/12:30pm 18.5 15.3 10.1 58 4.5 W 17 20 9 11 1018.7 1018.7 0.0
21/12:00pm 17.5 15.8 9.7 60 4.1 W 9 15 5 8 1018.4 1018.4 0.0
21/11:30am 16.7 14.4 9.1 61 3.9 NNW 11 15 6 8 1018.8 1018.8 0.0
21/11:00am 15.6 11.8 9.1 65 3.3 N 19 22 10 12 1018.4 1018.4 0.0
21/10:30am 16.1 11.8 9.3 64 3.5 NNE 22 30 12 16 1018.4 1018.4 0.0
21/10:00am 15.8 11.3 10.1 69 3.0 N 24 32 13 17 1018.6 1018.6 0.0
21/09:30am 14.3 9.7 9.7 74 2.4 N 24 35 13 19 1018.6 1018.6 0.0
21/09:00am 13.6 8.9 9.3 75 2.2 NNE 24 32 13 17 1018.7 1018.7 0.0
21/08:30am 13.5 8.8 9.4 76 2.1 N 24 33 13 18 1019.0 1019.0 0.0
21/08:00am 13.1 8.2 8.6 74 2.2 NNE 24 32 13 17 1019.0 1019.0 0.0
21/07:30am 12.8 8.4 9.1 78 1.9 NNE 22 32 12 17 1019.0 1019.0 0.0
21/07:00am 12.8 7.9 8.3 74 2.2 NNE 24 35 13 19 1018.9 1018.9 0.0
21/06:30am 12.8 7.8 8.1 73 2.3 NNE 24 35 13 19 1018.6 1018.6 0.0
21/06:00am 12.7 7.7 8.0 73 2.3 NNE 24 35 13 19 1018.5 1018.5 0.0
21/05:30am 12.7 8.0 7.6 71 2.5 NNE 22 35 12 19 1018.7 1018.7 0.0
21/05:00am 12.8 8.0 7.5 70 2.6 NNE 22 32 12 17 1018.5 1018.5 0.0
21/04:30am 12.9 7.8 7.6 70 2.6 NNE 24 35 13 19 1018.6 1018.6 0.0
21/04:00am 12.9 7.4 7.4 69 2.7 NNE 26 39 14 21 1018.7 1018.7 0.0
21/03:30am 12.8 6.9 7.3 69 2.7 NNE 28 41 15 22 1018.8 1018.8 0.0
21/03:00am 12.7 7.2 7.4 70 2.6 NNE 26 41 14 22 1019.4 1019.3 0.0
21/02:30am 12.8 8.5 7.7 71 2.5 NNE 20 32 11 17 1019.6 1019.5 0.0
21/02:00am 12.9 8.2 7.8 71 2.5 NE 22 33 12 18 1019.4 1019.3 0.0
21/01:30am 13.0 8.4 8.1 72 2.4 NE 22 35 12 19 1019.9 1019.8 0.0
21/01:00am 13.0 9.8 8.3 73 2.3 NE 15 26 8 14 1020.3 1020.2 0.0
21/12:30am 12.8 8.5 7.9 72 2.4 NE 20 32 11 17 1020.1 1020.0 0.0
21/12:00am 12.2 8.9 8.1 76 2.0 ENE 15 20 8 11 1020.7 1020.6 0.0
 
Date/Time
EDT
Temp
°C
App
Temp
°C
Dew
Point
°C
Rel
Hum
%
Delta-T
°C
Wind Press
QNH
hPa
Press
MSL
hPa
Rain since
9am
mm
Dir  Spd
km/h
Gust
km/h
Spd
kts
Gust
kts
20/11:30pm 12.2 8.4 7.7 74 2.2 NE 17 26 9 14 1020.9 1020.8 0.0
20/11:00pm 11.9 8.8 7.4 74 2.2 NE 13 19 7 10 1021.4 1021.3 0.0
20/10:30pm 11.9 9.2 7.2 73 2.3 NE 11 17 6 9 1021.6 1021.5 0.0
20/10:00pm 12.1 8.6 7.4 73 2.3 NE 15 19 8 10 1021.8 1021.7 0.0
20/09:30pm 12.1 9.0 7.2 72 2.4 NE 13 15 7 8 1022.0 1021.9 0.0
20/09:00pm 12.3 8.8 7.2 71 2.5 NE 15 20 8 11 1021.9 1021.8 0.0
20/08:30pm 12.6 9.5 7.1 69 2.7 NE 13 15 7 8 1021.8 1021.7 0.0
20/08:00pm 13.3 9.9 7.5 68 2.8 ENE 15 20 8 11 1021.6 1021.5 0.0
20/07:30pm 13.9 9.2 7.7 66 3.1 ENE 22 32 12 17 1021.7 1021.6 0.0
20/07:00pm 14.9 9.4 7.7 62 3.6 ENE 26 35 14 19 1021.6 1021.5 0.0
20/06:30pm 15.3 9.4 7.6 60 3.8 ENE 28 35 15 19 1021.6 1021.5 0.0
20/06:00pm 15.9 10.7 7.1 56 4.3 ENE 24 32 13 17 1022.1 1022.0 0.0
20/05:30pm 16.2 10.1 6.6 53 4.7 ENE 28 39 15 21 1022.2 1022.1 0.0
20/05:00pm 16.6 10.2 7.0 53 4.7 E 30 39 16 21 1022.5 1022.4 0.0
20/04:30pm 16.8 10.8 6.9 52 4.9 E 28 35 15 19 1022.9 1022.8 0.0
20/04:00pm 16.6 10.2 7.0 53 4.7 E 30 35 16 19 1023.4 1023.3 0.0
20/03:30pm 16.9 11.0 7.3 53 4.8 E 28 35 15 19 1023.7 1023.6 0.0
20/03:00pm 17.5 11.6 7.3 51 5.1 E 28 37 15 20 1023.8 1023.7 0.0
20/02:30pm 17.5 11.8 6.7 49 5.4 ENE 26 35 14 19 1024.2 1024.1 0.0
20/02:00pm 16.9 11.8 7.5 54 4.7 ESE 24 32 13 17 1024.5 1024.4 0.0
20/01:30pm 17.5 12.9 6.7 49 5.4 E 20 26 11 14 1025.0 1024.9 0.0
20/01:00pm 16.7 11.8 7.1 53 4.8 E 22 30 12 16 1025.1 1025.0 0.0
20/12:30pm 15.7 11.2 6.2 53 4.6 E 19 26 10 14 1025.7 1025.6 0.0
20/12:00pm 16.2 14.0 6.3 52 4.8 NNE 7 17 4 9 1026.0 1025.9 0.0
20/11:30am 15.9 12.5 6.1 52 4.8 NE 13 26 7 14 1026.1 1026.0 0.0
20/11:00am 14.6 10.1 5.9 56 4.1 ENE 19 26 10 14 1026.4 1026.3 0.0
20/10:30am 14.2 10.5 6.1 58 3.9 ENE 15 22 8 12 1026.8 1026.7 0.0
20/10:00am 14.0 10.6 6.1 59 3.8 ENE 13 19 7 10 1027.0 1026.9 0.0
20/09:30am 13.6 10.9 5.7 59 3.7 NNE 9 15 5 8 1027.0 1026.9 0.0
20/09:00am 13.0 10.2 5.2 59 3.6 NE 9 11 5 6 1027.1 1027.0 0.0
20/08:30am 12.6 10.3 5.8 63 3.2 NE 7 9 4 5 1027.2 1027.1 0.0
20/08:00am 12.2 9.8 5.4 63 3.1 ENE 7 11 4 6 1027.1 1027.0 0.0
20/07:30am 11.7 8.5 5.3 65 3.0 NE 11 15 6 8 1026.9 1026.8 0.0
20/07:00am 11.3 8.9 5.2 66 2.8 NNE 7 11 4 6 1026.8 1026.7 0.0
20/06:30am 11.4 8.2 5.1 65 2.9 NE 11 13 6 7 1026.7 1026.6 0.0
20/06:00am 11.4 8.5 4.6 63 3.1 NE 9 11 5 6 1026.8 1026.7 0.0
20/05:30am 11.8 7.7 4.5 61 3.3 ENE 15 20 8 11 1026.5 1026.4 0.0
20/05:00am 11.8 8.2 4.8 62 3.2 E 13 17 7 9 1026.6 1026.5 0.0
20/04:30am 11.9 8.0 5.3 64 3.1 ENE 15 22 8 12 1026.5 1026.4 0.0
20/04:00am 11.8 7.4 5.0 63 3.1 E 17 22 9 12 1026.6 1026.5 0.0
20/03:30am 11.7 8.2 5.6 66 2.8 ENE 13 20 7 11 1026.6 1026.5 0.0
20/03:00am 11.8 7.6 5.9 67 2.7 E 17 26 9 14 1026.5 1026.4 0.0
20/02:30am 11.1 8.7 5.2 67 2.7 N 7 9 4 5 1026.8 1026.7 0.0
20/02:00am 11.0 7.8 5.1 67 2.7 N 11 11 6 6 1026.7 1026.6 0.0
20/01:30am 11.1 8.3 5.0 66 2.8 N 9 11 5 6 1026.7 1026.6 0.0
20/01:00am 11.0 7.7 4.7 65 2.8 N 11 13 6 7 1026.5 1026.4 0.0
20/12:30am 11.1 8.2 4.6 64 2.9 NNE 9 13 5 7 1026.5 1026.4 0.0
20/12:00am 11.2 7.9 4.7 64 2.9 NE 11 15 6 8 1026.5 1026.4 0.0
 
Date/Time
EDT
Temp
°C
App
Temp
°C
Dew
Point
°C
Rel
Hum
%
Delta-T
°C
Wind Press
QNH
hPa
Press
MSL
hPa
Rain since
9am
mm
Dir  Spd
km/h
Gust
km/h
Spd
kts
Gust
kts
19/11:30pm 11.3 7.6 4.5 63 3.1 NE 13 19 7 10 1026.8 1026.7 0.0
19/11:00pm 11.3 7.5 3.8 60 3.3 ENE 13 19 7 10 1027.2 1027.1 0.0
19/10:30pm 11.7 6.6 4.2 60 3.4 ESE 20 30 11 16 1027.1 1027.0 0.0
19/10:00pm 11.7 7.2 4.4 61 3.3 SE 17 28 9 15 1027.1 1027.0 0.0
19/09:30pm 11.9 6.9 4.6 61 3.3 SE 20 30 11 16 1026.9 1026.8 0.0
19/09:00pm 12.0 7.2 4.7 61 3.3 SE 19 26 10 14 1026.8 1026.7 0.0
19/08:30pm 12.0 7.6 4.5 60 3.4 SSE 17 30 9 16 1026.7 1026.6 0.0
19/08:00pm 12.0 7.7 5.2 63 3.1 SSE 17 28 9 15 1026.7 1026.6 0.0
19/07:30pm 12.2 7.5 5.1 62 3.3 S 19 28 10 15 1026.6 1026.5 0.0
19/07:00pm 12.3 7.4 5.0 61 3.3 S 20 26 11 14 1026.3 1026.2 0.0
19/06:30pm 12.5 9.1 5.7 63 3.2 SSE 13 20 7 11 1026.2 1026.1 0.0
19/06:00pm 12.7 8.1 5.4 61 3.4 S 19 24 10 13 1026.2 1026.1 0.0
19/05:30pm 13.0 8.2 5.7 61 3.4 S 20 28 11 15 1026.2 1026.1 0.0
19/05:00pm 13.5 9.0 5.9 60 3.6 S 19 26 10 14 1026.4 1026.3 0.0
19/04:30pm 13.4 8.8 5.6 59 3.7 S 19 28 10 15 1026.5 1026.4 0.0
19/04:00pm 14.9 10.0 4.3 49 4.9 S 19 26 10 14 1026.4 1026.3 0.0
19/03:30pm 15.6 10.7 4.0 46 5.4 S 19 24 10 13 1026.4 1026.3 0.0
19/03:00pm 15.2 10.4 4.9 50 4.8 S 19 28 10 15 1026.3 1026.2 0.0
19/02:30pm 14.2 9.7 4.2 51 4.6 SSE 17 22 9 12 1026.1 1026.0 0.0
19/02:00pm 14.2 10.0 3.9 50 4.7 S 15 20 8 11 1026.1 1026.0 0.0
19/01:30pm 14.0 10.3 4.3 52 4.5 S 13 19 7 10 1026.1 1026.0 0.0
19/01:00pm 14.0 9.4 3.5 49 4.7 S 17 20 9 11 1025.8 1025.7 0.0
19/12:30pm 14.0 9.9 4.6 53 4.4 S 15 20 8 11 1025.6 1025.5 0.0
19/12:00pm 14.8 10.0 4.5 50 4.8 S 19 26 10 14 1025.4 1025.3 0.0
19/11:30am 14.0 8.8 3.5 49 4.8 S 20 28 11 15 1025.4 1025.3 0.0
19/11:00am 13.3 8.5 4.5 55 4.0 SSE 19 26 10 14 1025.2 1025.1 0.0
19/10:30am 12.5 6.9 3.7 55 4.0 S 22 30 12 16 1025.0 1024.9 0.0
19/10:00am 12.2 8.3 3.4 55 3.9 SSE 13 19 7 10 1024.8 1024.7 0.0
19/09:30am 12.4 7.4 3.6 55 3.9 S 19 26 10 14 1024.5 1024.4 0.0
19/09:00am 12.1 7.4 3.1 54 4.0 S 17 26 9 14 1024.2 1024.1 0.0
19/08:30am 12.0 6.8 3.5 56 3.8 S 20 32 11 17 1024.0 1023.9 0.0
19/08:00am 11.8 7.2 3.8 58 3.6 S 17 26 9 14 1023.5 1023.4 0.0

Latest Capital City Observations: Canberra | Sydney | Melbourne | Brisbane | Adelaide | Perth | Hobart | Darwin

Other Formats:

Comma delimited format used in spreadsheet applications
http://www.bom.gov.au/fwo/IDT60901/IDT60901.95967.axf

JavaScript Object Notation format (JSON) in row-major order
http://www.bom.gov.au/fwo/IDT60901/IDT60901.95967.json